Time;durP1;ratioP1;P1;durP2;ratioP2;P2;SDS_P1;SDS_P2;PMS_P1;PMS_P2;Temp;Humidity;BMP_temperature;BMP_pressure;BME280_temperature;BME280_humidity;BME280_pressure;Samples;Min_cycle;Max_cycle;Signal;HPM_P1;HPM_P2
2022/07/03 00:00:24;;;;;;;4.55;2.35;;;;;23.70;101650.00;;;;5054786;28;20208;-77
2022/07/03 00:02:51;;;;;;;4.78;2.42;;;;;23.60;101648.00;;;;5048448;28;20204;-77
2022/07/03 00:05:19;;;;;;;5.78;2.60;;;;;23.60;101647.00;;;;5057810;28;20199;-78
2022/07/03 00:07:49;;;;;;;4.03;2.55;;;;;23.50;101651.00;;;;5059612;28;20191;-78
2022/07/03 00:10:16;;;;;;;3.60;2.40;;;;;23.50;101646.00;;;;5050718;28;20207;-78
2022/07/03 00:12:43;;;;;;;2.58;2.20;;;;;23.50;101645.00;;;;5067409;28;20202;-78
2022/07/03 00:15:11;;;;;;;2.28;2.08;;;;;23.50;101637.00;;;;5064517;28;20233;-78
2022/07/03 00:17:40;;;;;;;2.50;2.30;;;;;23.40;101625.00;;;;5064144;28;20211;-77
2022/07/03 00:20:09;;;;;;;3.08;2.40;;;;;23.40;101634.00;;;;5051037;28;20306;-77
2022/07/03 00:22:42;;;;;;;2.45;2.22;;;;;23.30;101633.00;;;;5051424;28;20204;-78
2022/07/03 00:25:12;;;;;;;2.05;1.58;;;;;23.30;101635.00;;;;5049659;28;20203;-78
2022/07/03 00:27:42;;;;;;;2.63;2.30;;;;;23.30;101640.00;;;;5050632;28;20207;-78
2022/07/03 00:30:10;;;;;;;2.70;2.10;;;;;23.20;101636.00;;;;5070311;28;20218;-78
2022/07/03 00:32:42;;;;;;;2.83;2.03;;;;;23.20;101639.00;;;;5071501;28;20280;-78
2022/07/03 00:35:11;;;;;;;3.10;2.08;;;;;23.20;101639.00;;;;5049588;28;20697;-78
2022/07/03 00:37:39;;;;;;;2.38;2.08;;;;;23.10;101633.00;;;;5062271;28;20573;-78
2022/07/03 00:40:10;;;;;;;3.15;2.15;;;;;23.10;101645.00;;;;5051280;28;20203;-78
2022/07/03 00:42:39;;;;;;;2.55;1.95;;;;;23.10;101644.00;;;;5051022;28;20207;-78
2022/07/03 00:45:08;;;;;;;3.58;1.90;;;;;23.00;101636.00;;;;5065391;28;20211;-78
2022/07/03 00:47:37;;;;;;;6.07;2.22;;;;;23.00;101640.00;;;;5062298;28;20209;-78
2022/07/03 00:50:09;;;;;;;3.47;2.03;;;;;22.90;101633.00;;;;5062807;28;20232;-78
2022/07/03 00:52:38;;;;;;;4.10;2.70;;;;;22.90;101634.00;;;;5070990;28;20195;-78
2022/07/03 00:55:13;;;;;;;2.85;1.75;;;;;22.80;101631.00;;;;5068734;28;20277;-78
2022/07/03 00:57:46;;;;;;;2.30;2.10;;;;;22.80;101631.00;;;;5068553;28;20668;-78
2022/07/03 01:00:14;;;;;;;2.30;1.70;;;;;22.80;101631.00;;;;5050211;28;20527;-78
2022/07/03 01:02:48;;;;;;;2.33;2.10;;;;;22.70;101626.00;;;;5049387;28;20200;-78
2022/07/03 01:05:27;;;;;;;2.67;2.00;;;;;22.60;101626.00;;;;5049581;28;20682;-78
2022/07/03 01:08:03;;;;;;;2.75;2.00;;;;;22.70;101629.00;;;;5049434;28;20203;-78
2022/07/03 01:10:42;;;;;;;4.63;2.03;;;;;22.60;101634.00;;;;5060977;28;20193;-78
2022/07/03 01:13:14;;;;;;;3.05;1.95;;;;;22.60;101633.00;;;;5063337;28;20184;-77
2022/07/03 01:15:53;;;;;;;2.83;2.10;;;;;22.50;101632.00;;;;5049846;28;20903;-77
2022/07/03 01:18:30;;;;;;;5.00;2.25;;;;;22.50;101625.00;;;;5058535;28;20579;-78
2022/07/03 01:21:07;;;;;;;2.75;1.98;;;;;22.40;101633.00;;;;5064260;28;20248;-77
2022/07/03 01:24:17;;;;;;;2.47;2.00;;;;;22.40;101630.00;;;;5049724;28;20206;-78
2022/07/03 01:26:48;;;;;;;2.47;1.92;;;;;22.40;101624.00;;;;5049736;28;20205;-77
2022/07/03 01:29:23;;;;;;;2.42;1.80;;;;;22.40;101625.00;;;;5048779;28;20374;-78
2022/07/03 01:31:54;;;;;;;2.75;1.80;;;;;22.30;101618.00;;;;5048970;28;20222;-78
2022/07/03 01:34:22;;;;;;;4.07;2.05;;;;;22.30;101618.00;;;;5046949;28;20238;-77
2022/07/03 01:36:57;;;;;;;2.20;1.60;;;;;22.30;101617.00;;;;5057095;28;20199;-78
2022/07/03 01:39:28;;;;;;;2.30;1.75;;;;;22.20;101613.00;;;;5065803;28;20226;-78
2022/07/03 01:42:00;;;;;;;2.30;1.65;;;;;22.20;101615.00;;;;5061420;28;20197;-78
2022/07/03 01:44:29;;;;;;;1.98;1.77;;;;;22.20;101621.00;;;;5063503;28;20828;-78
2022/07/03 01:46:58;;;;;;;2.03;1.70;;;;;22.20;101613.00;;;;5065728;28;20199;-78
2022/07/03 01:49:28;;;;;;;2.17;1.90;;;;;22.10;101614.00;;;;5068115;28;20199;-78
2022/07/03 01:51:56;;;;;;;2.72;1.83;;;;;22.10;101608.00;;;;5066578;28;20203;-77
2022/07/03 01:54:26;;;;;;;3.70;1.80;;;;;22.00;101598.00;;;;5055101;28;20641;-78
2022/07/03 01:56:56;;;;;;;2.08;1.67;;;;;22.00;101599.00;;;;5068156;28;20198;-78
2022/07/03 01:59:23;;;;;;;2.53;1.77;;;;;22.00;101591.00;;;;5056475;28;20919;-78
2022/07/03 02:01:59;;;;;;;1.95;1.80;;;;;22.00;101601.00;;;;5068572;28;20191;-78
2022/07/03 02:04:33;;;;;;;2.33;1.52;;;;;21.90;101596.00;;;;5065612;28;20688;-77
2022/07/03 02:07:05;;;;;;;1.95;1.55;;;;;21.90;101596.00;;;;5062892;28;20198;-77
2022/07/03 02:09:45;;;;;;;1.92;1.70;;;;;21.90;101593.00;;;;5048202;28;20199;-77
2022/07/03 02:12:18;;;;;;;2.10;1.50;;;;;21.80;101591.00;;;;5048367;28;20290;-77
2022/07/03 02:14:55;;;;;;;2.00;1.83;;;;;21.80;101597.00;;;;5061530;28;20223;-77
2022/07/03 02:17:24;;;;;;;6.03;2.30;;;;;21.80;101587.00;;;;5066147;28;20191;-77
2022/07/03 02:19:55;;;;;;;3.72;2.00;;;;;21.80;101586.00;;;;5057397;28;20203;-78
2022/07/03 02:22:28;;;;;;;1.67;1.58;;;;;21.70;101583.00;;;;5068063;28;20724;-77
2022/07/03 02:25:04;;;;;;;2.30;1.90;;;;;21.70;101588.00;;;;5065700;28;20206;-77
2022/07/03 02:27:44;;;;;;;2.63;1.67;;;;;21.70;101589.00;;;;5061193;28;20565;-78
2022/07/03 02:30:12;;;;;;;1.42;1.23;;;;;21.70;101591.00;;;;5056600;28;20255;-78
2022/07/03 02:32:44;;;;;;;1.58;1.48;;;;;21.60;101588.00;;;;5067049;28;20211;-78
2022/07/03 02:35:14;;;;;;;3.38;1.67;;;;;21.60;101599.00;;;;5064667;28;20228;-78
2022/07/03 02:37:48;;;;;;;2.17;1.58;;;;;21.60;101589.00;;;;5061766;28;20661;-77
2022/07/03 02:40:25;;;;;;;2.28;1.52;;;;;21.50;101596.00;;;;5060333;28;20405;-78
2022/07/03 02:43:04;;;;;;;2.17;1.75;;;;;21.50;101593.00;;;;5049743;28;20207;-77
2022/07/03 02:45:41;;;;;;;1.83;1.58;;;;;21.50;101592.00;;;;5052890;28;20203;-77
2022/07/03 02:48:17;;;;;;;2.97;1.70;;;;;21.50;101600.00;;;;5050721;28;20186;-78
2022/07/03 02:50:51;;;;;;;1.65;1.38;;;;;21.50;101600.00;;;;5057203;28;20203;-77
2022/07/03 02:53:27;;;;;;;3.20;1.95;;;;;21.40;101594.00;;;;5052214;28;20210;-78
2022/07/03 02:56:05;;;;;;;2.75;1.85;;;;;21.40;101594.00;;;;5067665;28;20311;-79
2022/07/03 02:59:05;;;;;;;5.07;2.08;;;;;21.30;101602.00;;;;5046664;28;20196;-78
2022/07/03 03:01:39;;;;;;;2.55;1.60;;;;;21.40;101604.00;;;;5046222;28;20306;-79
2022/07/03 03:04:14;;;;;;;1.92;1.50;;;;;21.30;101601.00;;;;5047858;28;20646;-79
2022/07/03 03:06:48;;;;;;;2.03;1.75;;;;;21.40;101602.00;;;;5047061;28;20203;-79
2022/07/03 03:09:25;;;;;;;2.38;1.75;;;;;21.30;101604.00;;;;5058155;28;20242;-78
2022/07/03 03:11:53;;;;;;;1.67;1.50;;;;;21.40;101596.00;;;;5053670;28;20203;-78
2022/07/03 03:14:25;;;;;;;2.45;1.92;;;;;21.30;101602.00;;;;5047445;28;20195;-77
2022/07/03 03:16:54;;;;;;;3.35;2.17;;;;;21.30;101597.00;;;;5047925;28;20242;-77
2022/07/03 03:19:23;;;;;;;5.43;1.50;;;;;21.40;101596.00;;;;5059847;28;20222;-77
2022/07/03 03:21:59;;;;;;;1.65;1.30;;;;;21.30;101590.00;;;;5053097;28;20203;-78
2022/07/03 03:24:27;;;;;;;3.42;1.58;;;;;21.40;101585.00;;;;5047824;28;20203;-78
2022/07/03 03:26:54;;;;;;;1.88;1.67;;;;;21.40;101587.00;;;;5047752;28;20195;-78
2022/07/03 03:29:24;;;;;;;1.58;1.48;;;;;21.30;101587.00;;;;5057787;28;20257;-78
2022/07/03 03:31:51;;;;;;;2.85;1.60;;;;;21.40;101581.00;;;;5059063;28;20854;-78
2022/07/03 03:34:21;;;;;;;1.17;1.08;;;;;21.40;101578.00;;;;5067383;28;20205;-77
2022/07/03 03:36:48;;;;;;;1.83;1.20;;;;;21.40;101582.00;;;;5049605;28;20227;-78
2022/07/03 03:39:16;;;;;;;1.88;1.33;;;;;21.40;101583.00;;;;5056755;28;20210;-78
2022/07/03 03:41:43;;;;;;;1.67;1.35;;;;;21.40;101589.00;;;;5053010;28;20218;-78
2022/07/03 03:44:11;;;;;;;1.30;1.20;;;;;21.40;101584.00;;;;5047923;28;20192;-77
2022/07/03 03:46:39;;;;;;;2.22;1.20;;;;;21.40;101589.00;;;;5051029;28;20191;-78
2022/07/03 03:49:07;;;;;;;4.35;1.35;;;;;21.40;101588.00;;;;5050842;28;20658;-77
2022/07/03 03:51:34;;;;;;;2.30;1.67;;;;;21.40;101592.00;;;;5056667;28;20546;-77
2022/07/03 03:54:03;;;;;;;1.80;1.25;;;;;21.40;101601.00;;;;5051307;28;20728;-78
2022/07/03 03:56:31;;;;;;;2.10;1.50;;;;;21.40;101602.00;;;;5050711;28;20223;-78
2022/07/03 03:58:58;;;;;;;2.53;1.88;;;;;21.40;101603.00;;;;5057376;28;20195;-78
2022/07/03 04:01:25;;;;;;;1.50;1.38;;;;;21.40;101600.00;;;;5056175;28;20199;-78
2022/07/03 04:03:54;;;;;;;2.30;1.38;;;;;21.40;101601.00;;;;5050856;28;20204;-78
2022/07/03 04:06:21;;;;;;;1.50;1.40;;;;;21.40;101599.00;;;;5050773;28;20195;-77
2022/07/03 04:08:48;;;;;;;2.70;1.23;;;;;21.50;101601.00;;;;5054933;28;20201;-77
2022/07/03 04:11:16;;;;;;;1.77;1.50;;;;;21.50;101595.00;;;;5051660;28;20199;-77
2022/07/03 04:13:43;;;;;;;1.45;1.30;;;;;21.50;101591.00;;;;5069647;28;20203;-77
2022/07/03 04:16:11;;;;;;;2.22;1.58;;;;;21.50;101583.00;;;;5061591;28;20227;-77
2022/07/03 04:18:38;;;;;;;1.67;1.20;;;;;21.50;101583.00;;;;5054871;28;20294;-77
2022/07/03 04:21:08;;;;;;;1.85;1.50;;;;;21.50;101583.00;;;;5067805;28;20198;-77
2022/07/03 04:23:35;;;;;;;1.08;0.98;;;;;21.50;101584.00;;;;5068683;28;20661;-77
2022/07/03 04:26:06;;;;;;;1.60;1.40;;;;;21.50;101589.00;;;;5067887;28;20204;-78
2022/07/03 04:28:34;;;;;;;3.13;1.30;;;;;21.50;101589.00;;;;5051183;28;20588;-78
2022/07/03 04:31:01;;;;;;;1.40;1.25;;;;;21.50;101585.00;;;;5067667;28;20210;-77
2022/07/03 04:33:28;;;;;;;3.33;1.25;;;;;21.50;101593.00;;;;5049043;28;20223;-78
2022/07/03 04:35:56;;;;;;;1.95;1.50;;;;;21.50;101608.00;;;;5050169;28;20223;-78
2022/07/03 04:38:24;;;;;;;1.80;1.27;;;;;21.50;101603.00;;;;5048925;28;20187;-78
2022/07/03 04:40:52;;;;;;;1.65;1.40;;;;;21.60;101603.00;;;;5049401;28;20588;-78
2022/07/03 04:43:19;;;;;;;1.77;1.40;;;;;21.60;101601.00;;;;5048535;28;20817;-78
2022/07/03 04:45:46;;;;;;;2.95;1.33;;;;;21.70;101615.00;;;;5049476;28;20290;-78
2022/07/03 04:48:14;;;;;;;2.00;1.50;;;;;21.70;101603.00;;;;5054882;28;20286;-78
2022/07/03 04:50:41;;;;;;;4.45;1.38;;;;;21.70;101603.00;;;;5068998;28;20652;-78
2022/07/03 04:53:09;;;;;;;1.33;1.20;;;;;21.80;101608.00;;;;5068530;28;20221;-78
2022/07/03 04:55:38;;;;;;;1.02;0.95;;;;;21.80;101609.00;;;;5049786;28;20238;-78
2022/07/03 04:58:05;;;;;;;2.95;1.30;;;;;21.90;101608.00;;;;5049886;28;20203;-78
2022/07/03 05:00:33;;;;;;;1.60;1.50;;;;;22.00;101605.00;;;;5052617;28;20202;-78
2022/07/03 05:03:00;;;;;;;1.77;1.30;;;;;22.00;101609.00;;;;5063977;28;20213;-78
2022/07/03 05:05:28;;;;;;;1.77;1.38;;;;;22.10;101615.00;;;;5058792;28;20249;-78
2022/07/03 05:07:55;;;;;;;1.60;1.08;;;;;22.10;101618.00;;;;5051974;28;20210;-78
2022/07/03 05:10:23;;;;;;;1.48;1.20;;;;;22.20;101613.00;;;;5053132;28;20570;-79
2022/07/03 05:12:51;;;;;;;3.05;1.25;;;;;22.30;101617.00;;;;5064687;28;20198;-79
2022/07/03 05:15:19;;;;;;;2.20;1.20;;;;;22.30;101616.00;;;;5065189;28;20195;-78
2022/07/03 05:17:46;;;;;;;1.88;1.30;;;;;22.40;101606.00;;;;5046554;28;20195;-79
2022/07/03 05:20:28;;;;;;;1.40;1.30;;;;;22.50;101621.00;;;;5048496;28;20191;-79
2022/07/03 05:22:56;;;;;;;2.33;1.40;;;;;22.50;101619.00;;;;5048810;28;20257;-79
2022/07/03 05:25:24;;;;;;;3.45;1.40;;;;;22.60;101630.00;;;;5055022;28;20200;-78
2022/07/03 05:27:53;;;;;;;2.25;1.33;;;;;22.70;101628.00;;;;5067605;28;20194;-79
2022/07/03 05:30:21;;;;;;;2.97;1.15;;;;;22.70;101626.00;;;;5048424;28;20196;-79
2022/07/03 05:32:48;;;;;;;1.77;1.30;;;;;22.80;101625.00;;;;5046923;28;20222;-78
2022/07/03 05:35:16;;;;;;;1.33;1.15;;;;;22.90;101633.00;;;;5048223;28;20204;-78
2022/07/03 05:37:44;;;;;;;1.33;0.77;;;;;23.00;101628.00;;;;5051520;28;20291;-77
2022/07/03 05:40:12;;;;;;;2.20;1.02;;;;;23.10;101635.00;;;;5064846;28;20199;-77
2022/07/03 05:42:39;;;;;;;2.70;1.52;;;;;23.10;101630.00;;;;5067757;28;20187;-78
2022/07/03 05:45:10;;;;;;;2.90;1.15;;;;;23.10;101630.00;;;;5059781;28;20242;-77
2022/07/03 05:47:37;;;;;;;2.55;0.80;;;;;23.20;101634.00;;;;5056683;28;20569;-77
2022/07/03 05:50:05;;;;;;;1.35;0.70;;;;;23.20;101628.00;;;;5051939;28;20212;-78
2022/07/03 05:52:33;;;;;;;3.13;0.82;;;;;23.30;101634.00;;;;5054363;28;20202;-78
2022/07/03 05:55:00;;;;;;;2.90;1.05;;;;;23.40;101642.00;;;;5061179;28;20929;-77
2022/07/03 05:57:28;;;;;;;3.00;0.88;;;;;23.40;101639.00;;;;5054332;28;20223;-79
2022/07/03 05:59:55;;;;;;;2.03;0.90;;;;;23.50;101643.00;;;;5054629;28;20199;-78
2022/07/03 06:02:25;;;;;;;3.17;0.95;;;;;23.60;101628.00;;;;5055110;28;20196;-78
2022/07/03 06:05:01;;;;;;;1.88;0.70;;;;;23.60;101634.00;;;;5056933;28;21017;-78
2022/07/03 06:07:28;;;;;;;1.77;0.70;;;;;23.70;101637.00;;;;5049335;28;20199;-76
2022/07/03 06:09:56;;;;;;;2.20;0.55;;;;;23.80;101634.00;;;;5054125;28;20223;-77
2022/07/03 06:12:23;;;;;;;1.42;0.70;;;;;23.90;101640.00;;;;5050516;28;20198;-76
2022/07/03 06:14:50;;;;;;;3.03;0.80;;;;;23.90;101635.00;;;;5048032;28;20693;-78
2022/07/03 06:17:18;;;;;;;2.22;0.93;;;;;24.00;101635.00;;;;5056640;28;20227;-78
2022/07/03 06:19:46;;;;;;;2.55;0.60;;;;;24.10;101644.00;;;;5055660;28;20203;-79
2022/07/03 06:22:14;;;;;;;1.48;0.52;;;;;24.20;101644.00;;;;5050088;28;20204;-78
2022/07/03 06:24:42;;;;;;;1.13;0.57;;;;;24.20;101639.00;;;;5053270;28;20195;-77
2022/07/03 06:27:09;;;;;;;3.58;0.98;;;;;24.30;101635.00;;;;5051779;28;20208;-78
2022/07/03 06:29:37;;;;;;;1.52;0.68;;;;;24.30;101643.00;;;;5069846;28;20202;-78
2022/07/03 06:32:05;;;;;;;1.95;0.60;;;;;24.40;101641.00;;;;5061583;28;20192;-78
2022/07/03 06:34:33;;;;;;;3.63;0.95;;;;;24.40;101646.00;;;;5051657;28;20198;-78
2022/07/03 06:37:02;;;;;;;0.80;0.47;;;;;24.50;101650.00;;;;5055351;28;20222;-77
2022/07/03 06:39:29;;;;;;;3.33;0.77;;;;;24.60;101644.00;;;;5058996;28;20214;-77
2022/07/03 06:41:59;;;;;;;1.05;0.45;;;;;24.70;101652.00;;;;5054506;28;20222;-78
2022/07/03 06:44:26;;;;;;;2.90;0.73;;;;;24.70;101649.00;;;;5064845;28;20258;-77
2022/07/03 06:46:54;;;;;;;1.25;0.50;;;;;24.80;101648.00;;;;5058501;28;20210;-77
2022/07/03 06:49:22;;;;;;;4.68;1.10;;;;;24.90;101654.00;;;;5056704;28;20207;-77
2022/07/03 06:51:50;;;;;;;1.10;0.50;;;;;25.00;101656.00;;;;5048144;28;20203;-77
2022/07/03 06:54:18;;;;;;;1.65;0.70;;;;;25.00;101652.00;;;;5040131;28;20728;-77
2022/07/03 06:56:46;;;;;;;3.38;0.63;;;;;25.10;101656.00;;;;5047398;28;20222;-77
2022/07/03 06:59:13;;;;;;;2.60;0.93;;;;;25.20;101649.00;;;;5042193;28;20211;-77
2022/07/03 07:01:40;;;;;;;3.90;0.60;;;;;25.30;101656.00;;;;5046078;28;20191;-77
2022/07/03 07:04:08;;;;;;;1.33;0.80;;;;;25.40;101652.00;;;;5048420;28;20211;-77
2022/07/03 07:06:37;;;;;;;1.27;0.65;;;;;25.50;101649.00;;;;5045734;28;20200;-77
2022/07/03 07:09:05;;;;;;;3.17;0.90;;;;;25.50;101654.00;;;;5047448;28;20207;-75
2022/07/03 07:11:34;;;;;;;3.85;0.75;;;;;25.60;101643.00;;;;5046335;28;20217;-77
2022/07/03 07:14:01;;;;;;;1.13;0.75;;;;;25.70;101636.00;;;;5046258;28;20207;-78
2022/07/03 07:16:29;;;;;;;1.40;0.73;;;;;25.80;101646.00;;;;5054823;28;20227;-80
2022/07/03 07:18:56;;;;;;;2.42;0.70;;;;;25.80;101646.00;;;;5053795;28;21720;-78
2022/07/03 07:21:24;;;;;;;3.00;0.98;;;;;25.90;101647.00;;;;5053651;28;20565;-77
2022/07/03 07:23:54;;;;;;;3.10;0.60;;;;;25.90;101651.00;;;;5049244;28;20213;-78
2022/07/03 07:26:21;;;;;;;3.08;0.93;;;;;26.00;101659.00;;;;5057212;28;20199;-77
2022/07/03 07:28:50;;;;;;;1.17;0.65;;;;;26.10;101659.00;;;;5058194;28;20202;-78
2022/07/03 07:31:20;;;;;;;2.50;0.82;;;;;26.20;101657.00;;;;5066628;28;20207;-79
2022/07/03 07:33:48;;;;;;;0.95;0.63;;;;;26.30;101663.00;;;;5050006;28;20227;-77
2022/07/03 07:36:15;;;;;;;3.45;1.00;;;;;26.40;101663.00;;;;5054335;28;20541;-77
2022/07/03 07:38:43;;;;;;;1.77;0.90;;;;;26.40;101670.00;;;;5064111;28;20206;-79
2022/07/03 07:41:11;;;;;;;1.58;0.90;;;;;26.50;101674.00;;;;5065655;28;20202;-78
2022/07/03 07:43:38;;;;;;;0.88;0.88;;;;;26.50;101677.00;;;;5065415;28;20700;-78
2022/07/03 07:46:07;;;;;;;1.92;0.65;;;;;26.60;101674.00;;;;5059633;28;20203;-75
2022/07/03 07:48:35;;;;;;;5.13;1.15;;;;;26.60;101676.00;;;;5052121;28;20921;-77
2022/07/03 07:51:03;;;;;;;2.25;0.68;;;;;26.70;101680.00;;;;5054811;28;20199;-76
2022/07/03 07:53:30;;;;;;;1.30;0.90;;;;;26.80;101680.00;;;;5047069;28;20188;-79
2022/07/03 07:55:57;;;;;;;0.98;0.77;;;;;26.80;101672.00;;;;5057993;28;20191;-79
2022/07/03 07:58:25;;;;;;;3.70;1.17;;;;;26.90;101681.00;;;;5065476;28;20243;-78
2022/07/03 08:06:23;;;;;;;1.67;0.70;;;;;27.00;101694.00;;;;5056691;28;20380;-78
2022/07/03 08:08:50;;;;;;;3.85;1.00;;;;;27.10;101694.00;;;;5033529;28;20289;-78
2022/07/03 08:11:18;;;;;;;1.90;1.05;;;;;27.10;101700.00;;;;5034633;28;20214;-78
2022/07/03 08:13:46;;;;;;;3.28;0.73;;;;;27.10;101702.00;;;;5036807;28;20219;-79
2022/07/03 08:16:13;;;;;;;1.55;0.50;;;;;27.10;101703.00;;;;5053486;28;20959;-78
2022/07/03 08:18:42;;;;;;;1.33;0.45;;;;;27.10;101698.00;;;;5057017;28;20253;-77
2022/07/03 08:21:09;;;;;;;0.63;0.45;;;;;27.20;101703.00;;;;5051211;28;20191;-78
2022/07/03 08:23:38;;;;;;;4.28;0.63;;;;;27.30;101697.00;;;;5051749;28;20203;-79
2022/07/03 08:26:06;;;;;;;1.15;0.52;;;;;27.30;101690.00;;;;5061151;28;20628;-80
2022/07/03 08:28:33;;;;;;;1.75;0.80;;;;;27.40;101707.00;;;;5061341;28;20198;-78
2022/07/03 08:31:00;;;;;;;1.92;0.60;;;;;27.50;101699.00;;;;5050290;28;20200;-79
2022/07/03 08:33:28;;;;;;;1.27;0.57;;;;;27.60;101702.00;;;;5049859;28;20219;-77
2022/07/03 08:35:57;;;;;;;4.00;0.68;;;;;27.60;101703.00;;;;5054744;28;20191;-78
2022/07/03 08:38:33;;;;;;;2.30;0.50;;;;;27.60;101706.00;;;;5056473;28;20705;-77
2022/07/03 08:41:01;;;;;;;3.17;0.55;;;;;27.70;101710.00;;;;5052686;28;20213;-78
2022/07/03 08:43:29;;;;;;;0.50;0.40;;;;;27.70;101706.00;;;;5069699;28;20199;-79
2022/07/03 08:45:57;;;;;;;1.20;0.73;;;;;27.70;101713.00;;;;5060559;28;20669;-77
2022/07/03 08:48:26;;;;;;;0.50;0.35;;;;;27.80;101702.00;;;;5055557;28;20564;-76
2022/07/03 08:50:57;;;;;;;1.60;0.70;;;;;27.80;101701.00;;;;5054294;28;20197;-78
2022/07/03 08:53:25;;;;;;;1.23;0.73;;;;;27.80;101698.00;;;;5069643;28;20244;-82
2022/07/03 08:55:53;;;;;;;0.90;0.35;;;;;27.70;101698.00;;;;5060696;28;20230;-83
2022/07/03 08:58:24;;;;;;;2.05;0.47;;;;;27.70;101694.00;;;;5051070;28;20219;-82
2022/07/03 09:00:51;;;;;;;1.10;0.50;;;;;27.70;101692.00;;;;5050607;28;20195;-81
2022/07/03 09:03:20;;;;;;;1.55;0.70;;;;;27.70;101688.00;;;;5050039;28;20203;-81
2022/07/03 09:05:48;;;;;;;1.52;0.90;;;;;27.80;101694.00;;;;5050685;28;20649;-80
2022/07/03 09:08:18;;;;;;;1.83;0.50;;;;;27.80;101695.00;;;;5055671;28;20209;-79
2022/07/03 09:10:46;;;;;;;0.70;0.47;;;;;28.00;101688.00;;;;5060414;28;20207;-79
2022/07/03 09:13:13;;;;;;;0.88;0.50;;;;;28.00;101687.00;;;;5066524;28;20562;-80
2022/07/03 09:15:40;;;;;;;1.08;0.30;;;;;28.10;101695.00;;;;5053859;28;20187;-79
2022/07/03 09:18:09;;;;;;;2.25;0.50;;;;;28.20;101681.00;;;;5052968;28;20211;-81
2022/07/03 09:20:38;;;;;;;1.08;0.43;;;;;28.30;101686.00;;;;5049544;28;20207;-81
2022/07/03 09:23:19;;;;;;;0.68;0.38;;;;;28.30;101686.00;;;;5059540;28;20784;-82
2022/07/03 09:25:54;;;;;;;3.50;0.90;;;;;28.50;101682.00;;;;5052860;28;20206;-81
2022/07/03 09:28:23;;;;;;;1.70;0.30;;;;;28.60;101678.00;;;;5048704;28;20196;-80
2022/07/03 09:31:01;;;;;;;0.98;0.30;;;;;28.70;101690.00;;;;5049738;28;20195;-83
2022/07/03 09:33:29;;;;;;;1.65;0.60;;;;;28.90;101678.00;;;;5052714;28;20230;-81
2022/07/03 09:35:57;;;;;;;2.75;0.70;;;;;29.00;101684.00;;;;5056399;28;20689;-81
2022/07/03 09:38:26;;;;;;;1.55;0.50;;;;;29.10;101689.00;;;;5049256;28;20227;-82
2022/07/03 09:40:56;;;;;;;2.13;0.45;;;;;29.10;101686.00;;;;5060716;28;20196;-82
2022/07/03 09:43:25;;;;;;;4.85;0.40;;;;;29.20;101693.00;;;;5050575;28;20196;-79
2022/07/03 09:45:58;;;;;;;1.08;0.40;;;;;29.20;101697.00;;;;5060348;28;20199;-81
2022/07/03 09:48:28;;;;;;;2.45;0.40;;;;;29.20;101696.00;;;;5054813;28;20190;-81
2022/07/03 09:51:19;;;;;;;1.60;0.50;;;;;29.10;101694.00;;;;5049521;28;20202;-80
2022/07/03 09:53:54;;;;;;;0.82;0.40;;;;;29.20;101691.00;;;;5048643;28;20200;-81
2022/07/03 09:56:23;;;;;;;1.15;0.45;;;;;29.30;101696.00;;;;5050102;28;20290;-79
2022/07/03 09:59:09;;;;;;;2.63;0.60;;;;;29.20;101699.00;;;;5048736;28;20603;-77
2022/07/03 10:01:37;;;;;;;1.92;0.68;;;;;29.40;101698.00;;;;5069092;28;20206;-79
2022/07/03 10:04:16;;;;;;;0.43;0.32;;;;;29.40;101694.00;;;;5056894;28;20199;-79
2022/07/03 10:06:52;;;;;;;1.60;0.43;;;;;29.60;101695.00;;;;5051588;28;20215;-79
2022/07/03 10:09:23;;;;;;;0.80;0.50;;;;;29.70;101694.00;;;;5052177;28;20199;-79
2022/07/03 10:11:51;;;;;;;0.90;0.47;;;;;29.80;101694.00;;;;5049935;28;20302;-76
2022/07/03 10:14:20;;;;;;;1.38;0.70;;;;;29.90;101687.00;;;;5052956;28;20203;-78
2022/07/03 10:16:49;;;;;;;1.13;0.63;;;;;29.90;101704.00;;;;5050342;28;20218;-81
2022/07/03 10:19:19;;;;;;;1.10;0.30;;;;;29.90;101701.00;;;;5051984;28;20202;-80
2022/07/03 10:21:58;;;;;;;0.82;0.40;;;;;29.80;101704.00;;;;5049494;28;20663;-78
2022/07/03 10:24:28;;;;;;;0.63;0.30;;;;;29.90;101703.00;;;;5050355;28;20215;-79
2022/07/03 10:26:57;;;;;;;0.70;0.32;;;;;30.00;101707.00;;;;5048782;28;20576;-78
2022/07/03 10:29:27;;;;;;;0.50;0.32;;;;;30.00;101711.00;;;;5051166;28;20210;-77
2022/07/03 10:31:54;;;;;;;0.85;0.45;;;;;30.00;101706.00;;;;5053890;28;20687;-76
2022/07/03 10:34:23;;;;;;;1.02;0.32;;;;;30.10;101711.00;;;;5056299;28;20221;-76
2022/07/03 10:36:53;;;;;;;0.65;0.32;;;;;30.10;101706.00;;;;5051983;28;20677;-76
2022/07/03 10:39:33;;;;;;;0.55;0.30;;;;;30.10;101700.00;;;;5053857;28;20198;-76
2022/07/03 10:44:54;;;;;;;0.60;0.30;;;;;30.00;101706.00;;;;5048254;28;20195;-75
2022/07/03 10:47:40;;;;;;;0.65;0.30;;;;;29.90;101711.00;;;;5049538;28;20389;-75
2022/07/03 10:50:10;;;;;;;1.25;0.50;;;;;30.00;101716.00;;;;5063829;28;20202;-75
2022/07/03 10:52:38;;;;;;;4.45;0.93;;;;;30.00;101713.00;;;;5053875;28;20191;-76
2022/07/03 10:55:07;;;;;;;1.70;0.63;;;;;29.90;101719.00;;;;5052571;28;20234;-76
2022/07/03 10:57:35;;;;;;;1.88;0.75;;;;;29.90;101723.00;;;;5057979;28;20230;-77
2022/07/03 11:00:17;;;;;;;1.73;0.50;;;;;29.60;101718.00;;;;5046510;28;20206;-76
2022/07/03 11:02:46;;;;;;;1.40;0.60;;;;;29.60;101719.00;;;;5052995;28;20206;-76
2022/07/03 11:05:22;;;;;;;1.15;0.60;;;;;29.50;101719.00;;;;5057715;28;20210;-77
2022/07/03 11:08:08;;;;;;;1.98;0.60;;;;;29.30;101720.00;;;;5060482;28;20202;-76
2022/07/03 11:10:44;;;;;;;0.90;0.32;;;;;29.30;101721.00;;;;5054801;28;20197;-77
2022/07/03 11:13:16;;;;;;;0.38;0.38;;;;;29.20;101727.00;;;;5064120;28;20252;-76
2022/07/03 11:15:46;;;;;;;1.00;0.52;;;;;29.10;101719.00;;;;5051101;28;21165;-76
2022/07/03 11:18:28;;;;;;;0.90;0.38;;;;;28.90;101734.00;;;;5060702;28;20219;-77
2022/07/03 11:21:37;;;;;;;2.67;0.70;;;;;28.70;101712.00;;;;5067397;28;20195;-77
2022/07/03 11:24:36;;;;;;;2.80;0.80;;;;;28.70;101718.00;;;;5059709;28;20206;-76
2022/07/03 11:27:24;;;;;;;0.65;0.50;;;;;28.70;101715.00;;;;5046885;28;20223;-78
2022/07/03 11:30:10;;;;;;;1.95;1.15;;;;;28.70;101716.00;;;;5046506;28;20196;-77
2022/07/03 11:33:02;;;;;;;1.45;0.70;;;;;28.60;101718.00;;;;5050528;28;20226;-77
2022/07/03 11:35:50;;;;;;;6.13;1.00;;;;;28.50;101724.00;;;;5046301;28;20202;-79
2022/07/03 11:38:20;;;;;;;2.40;0.85;;;;;28.60;101716.00;;;;5046716;28;20227;-79
2022/07/03 11:40:51;;;;;;;1.02;0.55;;;;;28.50;101715.00;;;;5052795;28;20214;-77
2022/07/03 11:43:19;;;;;;;3.47;0.93;;;;;28.50;101705.00;;;;5051806;28;20192;-78
2022/07/03 11:45:49;;;;;;;1.60;0.60;;;;;28.50;101710.00;;;;5052904;28;20291;-79
2022/07/03 11:48:18;;;;;;;1.58;0.90;;;;;28.50;101704.00;;;;5047410;28;20203;-79
2022/07/03 11:50:46;;;;;;;3.35;1.33;;;;;28.50;101694.00;;;;5047532;28;20283;-77
2022/07/03 11:53:21;;;;;;;1.48;0.65;;;;;28.50;101698.00;;;;5045753;28;20207;-76
2022/07/03 11:55:50;;;;;;;1.55;0.75;;;;;28.60;101696.00;;;;5054657;28;20229;-76
2022/07/03 11:58:20;;;;;;;2.10;1.00;;;;;28.60;101700.00;;;;5047348;28;20262;-75
2022/07/03 12:00:48;;;;;;;1.65;0.80;;;;;28.60;101704.00;;;;5057921;28;20199;-75
2022/07/03 12:03:24;;;;;;;1.75;0.57;;;;;28.60;101692.00;;;;5066445;28;20201;-77
2022/07/03 12:06:01;;;;;;;0.57;0.47;;;;;28.70;101706.00;;;;5060052;28;20204;-76
2022/07/03 12:08:31;;;;;;;2.90;0.73;;;;;28.80;101696.00;;;;5052544;28;20653;-76
2022/07/03 12:11:02;;;;;;;1.10;0.75;;;;;28.80;101693.00;;;;5060005;28;20192;-78
2022/07/03 12:13:32;;;;;;;1.05;0.50;;;;;28.80;101688.00;;;;5055968;28;20211;-76
2022/07/03 12:16:07;;;;;;;1.60;0.70;;;;;28.90;101701.00;;;;5059333;28;20611;-77
2022/07/03 12:18:50;;;;;;;0.88;0.30;;;;;28.80;101700.00;;;;5056129;28;20219;-76
2022/07/03 12:21:18;;;;;;;1.98;0.50;;;;;29.00;101703.00;;;;5060013;28;20210;-77
2022/07/03 12:23:47;;;;;;;1.92;0.50;;;;;29.00;101695.00;;;;5056821;28;20214;-77
2022/07/03 12:26:15;;;;;;;1.17;0.47;;;;;29.00;101699.00;;;;5057822;28;20199;-77
2022/07/03 12:28:44;;;;;;;1.10;0.60;;;;;29.00;101695.00;;;;5062902;28;20206;-76
2022/07/03 12:31:12;;;;;;;0.60;0.30;;;;;29.00;101704.00;;;;5059356;28;20199;-79
2022/07/03 12:33:40;;;;;;;1.08;0.40;;;;;29.00;101716.00;;;;5058806;28;20211;-77